Hastings, Pennsylvania
Current Conditions -  °F | °C
As of 5:55 AM on Sunday 23 Nov 2014 (Local Time) from KIDI Reporting Station
Overcast Overcast  
Wind Chill: 46°   Ceiling: 4400
Heat Index: 48°   Visibility: 10mi
Dew Point: 28°   Wind: 6mph
Humidity: 46%   Direction: 250°WSW
Pressure: 30.15"   Gusts: NA
Location:  40.67°N, 78.71°W
Report Text: KIDI 231055Z AUTO 25005KT 10SM BKN044 OVC050 09/M02 A3015 RMK A01
Loading
Personal Weather Stations






























Interactive Weather Map New forecast layout! Learn more

10-Day Weather Forecast

Advertisements
Track Severe Weather on mobile